Time,TemperatureF,DewpointF,PressureIn,WindDirection,WindDirectionDegrees,WindSpeedMPH,WindSpeedGustMPH,Humidity,HourlyPrecipIn,Conditions,Clouds,dailyrainin,SoftwareType,DateUTC
2013-06-26 00:01:00,72.5,69.0,29.28,NNE,23,0.0,0.0,89,0.00,,,0.00,WUHU216HW,2013-06-26 04:01:00,
2013-06-26 00:06:00,72.3,68.9,29.28,NNE,23,0.0,0.0,89,0.00,,,0.00,WUHU216HW,2013-06-26 04:06:00,
2013-06-26 00:12:00,72.3,68.9,29.28,NNE,23,0.0,0.0,89,0.00,,,0.00,WUHU216HW,2013-06-26 04:12:00,
2013-06-26 00:17:00,72.3,69.2,29.28,NNE,23,0.0,0.0,90,0.00,,,0.00,WUHU216HW,2013-06-26 04:17:00,
2013-06-26 00:22:00,72.3,69.2,29.28,NNE,23,0.0,0.0,90,0.00,,,0.00,WUHU216HW,2013-06-26 04:22:00,
2013-06-26 00:27:00,72.3,69.2,29.28,NNE,23,0.0,0.0,90,0.00,,,0.00,WUHU216HW,2013-06-26 04:27:00,
2013-06-26 00:32:00,72.1,69.0,29.27,NNE,23,0.0,0.0,90,0.00,,,0.00,WUHU216HW,2013-06-26 04:32:00,
2013-06-26 00:37:00,72.1,69.0,29.27,NNE,23,0.0,0.0,90,0.00,,,0.00,WUHU216HW,2013-06-26 04:37:00,
2013-06-26 00:42:00,71.9,68.9,29.27,NNE,23,0.0,0.0,90,0.00,,,0.00,WUHU216HW,2013-06-26 04:42:00,
2013-06-26 00:47:00,71.9,68.9,29.27,NNE,23,0.0,0.0,90,0.00,,,0.00,WUHU216HW,2013-06-26 04:47:00,
2013-06-26 00:52:00,71.7,68.7,29.27,NNE,23,0.0,0.0,90,0.00,,,0.00,WUHU216HW,2013-06-26 04:52:00,
2013-06-26 00:57:00,71.7,68.7,29.27,NNE,23,0.0,0.0,90,0.00,,,0.00,WUHU216HW,2013-06-26 04:57:00,
2013-06-26 01:02:00,71.7,68.7,29.27,NNE,23,0.0,0.0,90,0.00,,,0.00,WUHU216HW,2013-06-26 05:02:00,
2013-06-26 01:07:00,71.7,68.7,29.27,NNE,23,0.0,0.0,90,0.00,,,0.00,WUHU216HW,2013-06-26 05:07:00,
2013-06-26 01:12:00,71.6,68.8,29.27,NNE,23,0.0,0.0,91,0.00,,,0.00,WUHU216HW,2013-06-26 05:12:00,
2013-06-26 01:17:00,71.4,68.3,29.27,NNE,23,0.0,0.0,90,0.00,,,0.00,WUHU216HW,2013-06-26 05:17:00,
2013-06-26 01:23:00,71.4,68.3,29.27,NNE,23,0.0,0.0,90,0.00,,,0.00,WUHU216HW,2013-06-26 05:23:00,
2013-06-26 01:28:00,71.4,68.3,29.27,NNE,23,0.0,0.0,90,0.00,,,0.00,WUHU216HW,2013-06-26 05:28:00,
2013-06-26 01:33:00,71.4,68.3,29.27,NNE,23,0.0,0.0,90,0.00,,,0.00,WUHU216HW,2013-06-26 05:33:00,
2013-06-26 01:38:00,71.4,68.3,29.27,NNE,23,0.0,0.0,90,0.00,,,0.00,WUHU216HW,2013-06-26 05:38:00,
2013-06-26 01:43:00,71.4,68.3,29.26,NNE,23,0.0,0.0,90,0.00,,,0.00,WUHU216HW,2013-06-26 05:43:00,
2013-06-26 01:48:00,71.4,68.3,29.27,NNE,23,0.0,0.0,90,0.00,,,0.00,WUHU216HW,2013-06-26 05:48:00,
2013-06-26 01:53:00,71.4,68.3,29.26,NNE,23,0.0,0.0,90,0.00,,,0.00,WUHU216HW,2013-06-26 05:53:00,
2013-06-26 01:58:00,71.4,68.6,29.26,NNE,23,0.0,0.0,91,0.00,,,0.00,WUHU216HW,2013-06-26 05:58:00,
2013-06-26 02:03:00,71.4,68.3,29.26,NNE,23,0.0,0.0,90,0.00,,,0.00,WUHU216HW,2013-06-26 06:03:00,
2013-06-26 02:08:00,71.4,68.6,29.26,NNE,23,0.0,0.0,91,0.00,,,0.00,WUHU216HW,2013-06-26 06:08:00,
2013-06-26 02:14:00,71.4,68.6,29.25,NNE,23,0.0,0.0,91,0.00,,,0.00,WUHU216HW,2013-06-26 06:14:00,
2013-06-26 02:19:00,71.4,68.6,29.25,NNE,23,0.0,0.0,91,0.00,,,0.00,WUHU216HW,2013-06-26 06:19:00,
2013-06-26 02:24:00,71.4,68.6,29.25,NNE,23,0.0,0.0,91,0.00,,,0.00,WUHU216HW,2013-06-26 06:24:00,
2013-06-26 02:29:00,71.2,68.4,29.25,NNE,23,0.0,0.0,91,0.00,,,0.00,WUHU216HW,2013-06-26 06:29:00,
2013-06-26 02:34:00,71.2,68.4,29.25,NNE,23,0.0,0.0,91,0.00,,,0.00,WUHU216HW,2013-06-26 06:34:00,
2013-06-26 02:39:00,71.2,68.4,29.25,NNE,23,0.0,0.0,91,0.00,,,0.00,WUHU216HW,2013-06-26 06:39:00,
2013-06-26 02:44:00,71.2,68.4,29.25,NNE,23,0.0,0.0,91,0.00,,,0.00,WUHU216HW,2013-06-26 06:44:00,
2013-06-26 02:49:00,71.2,68.4,29.24,NNE,23,0.0,0.0,91,0.00,,,0.00,WUHU216HW,2013-06-26 06:49:00,
2013-06-26 02:54:00,71.2,68.4,29.25,NNE,23,0.0,0.0,91,0.00,,,0.00,WUHU216HW,2013-06-26 06:54:00,
2013-06-26 02:59:00,71.2,68.4,29.25,NNE,23,0.0,0.0,91,0.00,,,0.00,WUHU216HW,2013-06-26 06:59:00,
2013-06-26 03:05:00,71.2,68.4,29.25,NNE,23,0.0,0.0,91,0.00,,,0.00,WUHU216HW,2013-06-26 07:05:00,
2013-06-26 03:10:00,71.2,68.4,29.26,NNE,23,0.0,0.0,91,0.00,,,0.00,WUHU216HW,2013-06-26 07:10:00,
2013-06-26 03:15:00,71.2,68.4,29.26,NNE,23,0.0,0.0,91,0.00,,,0.00,WUHU216HW,2013-06-26 07:15:00,
2013-06-26 03:20:00,71.0,68.3,29.26,NNE,23,0.0,0.0,91,0.00,,,0.00,WUHU216HW,2013-06-26 07:20:00,
2013-06-26 03:25:00,71.0,68.3,29.26,NNE,23,0.0,0.0,91,0.00,,,0.00,WUHU216HW,2013-06-26 07:25:00,
2013-06-26 03:30:00,71.0,68.3,29.26,NNE,23,0.0,0.0,91,0.00,,,0.00,WUHU216HW,2013-06-26 07:30:00,
2013-06-26 03:35:00,71.0,68.3,29.26,NNE,23,0.0,0.0,91,0.00,,,0.00,WUHU216HW,2013-06-26 07:35:00,
2013-06-26 03:40:00,70.8,68.1,29.26,NNE,23,0.0,0.0,91,0.00,,,0.00,WUHU216HW,2013-06-26 07:40:00,
2013-06-26 03:45:00,70.8,68.1,29.26,NNE,23,0.0,0.0,91,0.00,,,0.00,WUHU216HW,2013-06-26 07:45:00,
2013-06-26 03:50:00,70.8,68.1,29.26,NNE,23,0.0,0.0,91,0.00,,,0.00,WUHU216HW,2013-06-26 07:50:00,
2013-06-26 03:55:00,70.8,68.1,29.26,NNE,23,0.0,0.0,91,0.00,,,0.00,WUHU216HW,2013-06-26 07:55:00,
2013-06-26 04:00:00,70.8,68.1,29.26,NNE,23,0.0,0.0,91,0.00,,,0.00,WUHU216HW,2013-06-26 08:00:00,
2013-06-26 04:06:00,70.8,68.1,29.26,NNE,23,0.0,0.0,91,0.00,,,0.00,WUHU216HW,2013-06-26 08:06:00,
2013-06-26 04:10:00,70.7,67.9,29.26,NNE,23,0.0,0.0,91,0.00,,,0.00,WUHU216HW,2013-06-26 08:10:00,
2013-06-26 04:16:00,70.5,67.7,29.26,NNE,23,0.0,0.0,91,0.00,,,0.00,WUHU216HW,2013-06-26 08:16:00,
2013-06-26 04:21:00,70.5,67.7,29.26,NNE,23,0.0,0.0,91,0.00,,,0.00,WUHU216HW,2013-06-26 08:21:00,
2013-06-26 04:26:00,70.5,67.7,29.26,NNE,23,0.0,0.0,91,0.00,,,0.00,WUHU216HW,2013-06-26 08:26:00,
2013-06-26 04:31:00,70.3,67.5,29.27,NNE,23,0.0,0.0,91,0.00,,,0.00,WUHU216HW,2013-06-26 08:31:00,
2013-06-26 04:36:00,70.3,67.5,29.27,NNE,23,0.0,0.0,91,0.00,,,0.00,WUHU216HW,2013-06-26 08:36:00,
2013-06-26 04:41:00,70.3,67.5,29.27,NNE,23,0.0,0.0,91,0.00,,,0.00,WUHU216HW,2013-06-26 08:41:00,
2013-06-26 04:46:00,70.3,67.5,29.26,NNE,23,0.0,0.0,91,0.00,,,0.00,WUHU216HW,2013-06-26 08:46:00,
2013-06-26 04:51:00,70.1,67.4,29.27,NNE,23,0.0,0.0,91,0.00,,,0.00,WUHU216HW,2013-06-26 08:51:00,
2013-06-26 04:56:00,70.1,67.4,29.27,NNE,23,0.0,0.0,91,0.00,,,0.00,WUHU216HW,2013-06-26 08:56:00,
2013-06-26 05:01:00,69.9,67.2,29.27,NNE,23,0.0,0.0,91,0.00,,,0.00,WUHU216HW,2013-06-26 09:01:00,
2013-06-26 05:06:00,69.9,67.2,29.27,NNE,23,0.0,0.0,91,0.00,,,0.00,WUHU216HW,2013-06-26 09:06:00,
2013-06-26 05:12:00,69.9,67.5,29.27,NNE,23,0.0,0.0,92,0.00,,,0.00,WUHU216HW,2013-06-26 09:12:00,
2013-06-26 05:17:00,69.9,67.2,29.27,NNE,23,0.0,0.0,91,0.00,,,0.00,WUHU216HW,2013-06-26 09:17:00,
2013-06-26 05:22:00,69.8,67.3,29.27,NNE,23,0.0,0.0,92,0.00,,,0.00,WUHU216HW,2013-06-26 09:22:00,
2013-06-26 05:27:00,69.8,67.3,29.27,NNE,23,0.0,0.0,92,0.00,,,0.00,WUHU216HW,2013-06-26 09:27:00,
2013-06-26 05:32:00,69.8,67.3,29.27,NNE,23,0.0,0.0,92,0.00,,,0.00,WUHU216HW,2013-06-26 09:32:00,
2013-06-26 05:37:00,69.6,67.1,29.27,NNE,23,0.0,0.0,92,0.00,,,0.00,WUHU216HW,2013-06-26 09:37:00,
2013-06-26 05:42:00,69.6,67.1,29.28,NNE,23,0.0,0.0,92,0.00,,,0.00,WUHU216HW,2013-06-26 09:42:00,
2013-06-26 05:47:00,69.6,67.1,29.28,NNE,23,0.0,0.0,92,0.00,,,0.00,WUHU216HW,2013-06-26 09:47:00,
2013-06-26 05:52:00,69.6,67.1,29.28,NNE,23,0.0,0.0,92,0.00,,,0.00,WUHU216HW,2013-06-26 09:52:00,
2013-06-26 05:57:00,69.6,67.1,29.28,NNE,23,0.0,0.0,92,0.00,,,0.00,WUHU216HW,2013-06-26 09:57:00,
2013-06-26 06:02:00,69.6,67.1,29.28,NNE,23,0.0,0.0,92,0.00,,,0.00,WUHU216HW,2013-06-26 10:02:00,
2013-06-26 06:08:00,69.6,67.1,29.28,NNE,23,0.0,0.0,92,0.00,,,0.00,WUHU216HW,2013-06-26 10:08:00,
2013-06-26 06:13:00,69.6,67.1,29.28,NNE,23,0.0,0.0,92,0.00,,,0.00,WUHU216HW,2013-06-26 10:13:00,
2013-06-26 06:18:00,69.6,67.1,29.28,NNE,23,0.0,0.0,92,0.00,,,0.00,WUHU216HW,2013-06-26 10:18:00,
2013-06-26 06:23:00,69.6,67.1,29.28,NNE,23,0.0,0.0,92,0.00,,,0.00,WUHU216HW,2013-06-26 10:23:00,
2013-06-26 06:28:00,69.6,67.1,29.28,NNE,23,0.0,0.0,92,0.00,,,0.00,WUHU216HW,2013-06-26 10:28:00,
2013-06-26 06:33:00,69.6,67.1,29.28,NNE,23,0.0,0.0,92,0.00,,,0.00,WUHU216HW,2013-06-26 10:33:00,
2013-06-26 06:38:00,69.6,67.1,29.29,NNE,23,0.0,0.0,92,0.00,,,0.00,WUHU216HW,2013-06-26 10:38:00,
2013-06-26 06:43:00,69.8,67.3,29.29,NNE,23,0.0,0.0,92,0.00,,,0.00,WUHU216HW,2013-06-26 10:43:00,
2013-06-26 06:48:00,69.9,67.5,29.28,NNE,23,0.0,0.0,92,0.00,,,0.00,WUHU216HW,2013-06-26 10:48:00,
2013-06-26 06:53:00,69.9,67.5,29.28,NNE,23,0.0,0.0,92,0.00,,,0.00,WUHU216HW,2013-06-26 10:53:00,
2013-06-26 06:59:00,70.3,67.8,29.29,NNE,23,0.0,0.0,92,0.00,,,0.00,WUHU216HW,2013-06-26 10:59:00,
2013-06-26 07:03:00,70.5,68.0,29.29,NNE,23,0.0,0.0,92,0.00,,,0.00,WUHU216HW,2013-06-26 11:03:00,
2013-06-26 07:08:00,70.8,68.4,29.28,NNE,23,0.0,0.0,92,0.00,,,0.00,WUHU216HW,2013-06-26 11:08:00,
2013-06-26 07:14:00,71.6,69.1,29.29,NNE,23,0.0,0.0,92,0.00,,,0.00,WUHU216HW,2013-06-26 11:14:00,
2013-06-26 07:19:00,72.1,69.6,29.29,NNE,23,0.0,0.0,92,0.00,,,0.00,WUHU216HW,2013-06-26 11:19:00,
2013-06-26 07:24:00,72.5,70.0,29.29,NNE,23,0.0,0.0,92,0.00,,,0.00,WUHU216HW,2013-06-26 11:24:00,
2013-06-26 07:29:00,72.6,70.2,29.29,NNE,23,0.0,0.0,92,0.00,,,0.00,WUHU216HW,2013-06-26 11:29:00,
2013-06-26 07:34:00,72.6,69.9,29.29,NNE,23,0.0,0.0,91,0.00,,,0.00,WUHU216HW,2013-06-26 11:34:00,
2013-06-26 07:39:00,72.6,69.9,29.29,NNE,23,0.0,0.0,91,0.00,,,0.00,WUHU216HW,2013-06-26 11:39:00,
2013-06-26 07:44:00,72.8,70.1,29.29,NNE,23,0.0,0.0,91,0.00,,,0.00,WUHU216HW,2013-06-26 11:44:00,
2013-06-26 07:49:00,73.0,70.2,29.29,NNE,23,0.0,0.0,91,0.00,,,0.00,WUHU216HW,2013-06-26 11:49:00,
2013-06-26 07:54:00,73.2,70.4,29.30,NNE,23,0.0,0.0,91,0.00,,,0.00,WUHU216HW,2013-06-26 11:54:00,
2013-06-26 07:59:00,73.2,70.1,29.30,NNE,23,0.0,0.0,90,0.00,,,0.00,WUHU216HW,2013-06-26 11:59:00,
2013-06-26 08:04:00,73.5,70.5,29.30,NNE,23,0.0,0.0,90,0.00,,,0.00,WUHU216HW,2013-06-26 12:04:00,
2013-06-26 08:09:00,73.5,70.5,29.30,NNE,23,0.0,0.0,90,0.00,,,0.00,WUHU216HW,2013-06-26 12:09:00,
2013-06-26 08:14:00,73.7,70.3,29.31,NNE,23,0.0,0.0,89,0.00,,,0.00,WUHU216HW,2013-06-26 12:14:00,
2013-06-26 08:19:00,73.7,70.3,29.31,NNE,23,0.0,0.0,89,0.00,,,0.00,WUHU216HW,2013-06-26 12:19:00,
2013-06-26 08:25:00,73.9,70.5,29.30,NNE,23,0.0,0.0,89,0.00,,,0.00,WUHU216HW,2013-06-26 12:25:00,
2013-06-26 08:30:00,74.1,70.3,29.30,NNE,23,0.0,0.0,88,0.00,,,0.00,WUHU216HW,2013-06-26 12:30:00,
2013-06-26 08:35:00,74.1,70.0,29.30,NNE,23,0.0,0.0,87,0.00,,,0.00,WUHU216HW,2013-06-26 12:35:00,
2013-06-26 08:40:00,74.1,70.0,29.31,NNE,23,0.0,0.0,87,0.00,,,0.00,WUHU216HW,2013-06-26 12:40:00,
2013-06-26 08:45:00,74.1,70.0,29.31,NNE,23,0.0,0.0,87,0.00,,,0.00,WUHU216HW,2013-06-26 12:45:00,
2013-06-26 08:50:00,74.3,69.8,29.31,NNE,23,0.0,0.0,86,0.00,,,0.00,WUHU216HW,2013-06-26 12:50:00,
2013-06-26 08:55:00,74.3,69.8,29.31,NNE,23,0.0,0.0,86,0.00,,,0.00,WUHU216HW,2013-06-26 12:55:00,
2013-06-26 09:00:00,74.1,69.6,29.30,NNE,23,0.0,0.0,86,0.00,,,0.00,WUHU216HW,2013-06-26 13:00:00,
2013-06-26 09:05:00,74.1,69.6,29.30,NNE,23,0.0,0.0,86,0.00,,,0.00,WUHU216HW,2013-06-26 13:05:00,
2013-06-26 09:10:00,74.3,69.8,29.30,NNE,23,0.0,0.0,86,0.00,,,0.00,WUHU216HW,2013-06-26 13:10:00,
2013-06-26 09:15:00,74.4,69.7,29.30,NNE,23,0.0,0.0,85,0.00,,,0.00,WUHU216HW,2013-06-26 13:15:00,
2013-06-26 09:20:00,74.8,70.0,29.30,NNE,23,0.0,0.0,85,0.00,,,0.00,WUHU216HW,2013-06-26 13:20:00,
2013-06-26 09:25:00,74.8,70.0,29.30,NNE,23,0.0,0.0,85,0.00,,,0.00,WUHU216HW,2013-06-26 13:25:00,
2013-06-26 09:30:00,75.0,70.2,29.30,ENE,68,0.0,0.0,85,0.00,,,0.00,WUHU216HW,2013-06-26 13:30:00,
2013-06-26 09:35:00,75.2,70.4,29.30,NE,45,0.0,0.0,85,0.00,,,0.00,WUHU216HW,2013-06-26 13:35:00,
2013-06-26 09:40:00,75.3,70.2,29.30,NE,45,0.0,0.0,84,0.00,,,0.00,WUHU216HW,2013-06-26 13:40:00,
2013-06-26 09:45:00,75.7,70.5,29.30,NE,45,0.0,0.0,84,0.00,,,0.00,WUHU216HW,2013-06-26 13:45:00,
2013-06-26 09:50:00,75.9,70.4,29.30,NE,45,0.0,0.0,83,0.00,,,0.00,WUHU216HW,2013-06-26 13:50:00,
2013-06-26 09:55:00,75.9,70.4,29.30,NE,45,0.0,0.0,83,0.00,,,0.00,WUHU216HW,2013-06-26 13:55:00,
2013-06-26 10:00:00,76.1,70.2,29.30,NE,45,0.0,0.0,82,0.00,,,0.00,WUHU216HW,2013-06-26 14:00:00,
2013-06-26 10:05:00,76.2,70.3,29.30,NE,45,0.0,0.0,82,0.00,,,0.00,WUHU216HW,2013-06-26 14:05:00,
2013-06-26 10:10:00,76.6,70.7,29.30,ESE,113,0.0,0.0,82,0.00,,,0.00,WUHU216HW,2013-06-26 14:10:00,
2013-06-26 10:15:00,76.6,70.7,29.30,ESE,113,0.0,0.0,82,0.00,,,0.00,WUHU216HW,2013-06-26 14:15:00,
2013-06-26 10:21:00,76.6,70.7,29.30,ESE,113,0.0,0.0,82,0.00,,,0.00,WUHU216HW,2013-06-26 14:21:00,
2013-06-26 10:26:00,76.8,70.8,29.30,SE,135,0.0,0.0,82,0.00,,,0.00,WUHU216HW,2013-06-26 14:26:00,
2013-06-26 10:31:00,77.0,70.7,29.30,ENE,68,0.0,0.0,81,0.00,,,0.00,WUHU216HW,2013-06-26 14:31:00,
2013-06-26 10:36:00,77.5,71.2,29.29,SSE,158,0.0,0.0,81,0.00,,,0.00,WUHU216HW,2013-06-26 14:36:00,
2013-06-26 10:41:00,78.0,71.4,29.29,SE,135,0.0,0.0,80,0.00,,,0.00,WUHU216HW,2013-06-26 14:41:00,
2013-06-26 10:46:00,78.6,71.1,29.29,NNW,338,0.0,0.0,78,0.00,,,0.00,WUHU216HW,2013-06-26 14:46:00,
2013-06-26 10:51:00,79.3,71.8,29.29,ENE,68,0.0,0.0,78,0.00,,,0.00,WUHU216HW,2013-06-26 14:51:00,
2013-06-26 10:56:00,79.7,72.2,29.29,ENE,68,0.0,0.0,78,0.00,,,0.00,WUHU216HW,2013-06-26 14:56:00,
2013-06-26 11:01:00,80.4,72.5,29.29,NE,45,0.0,0.0,77,0.00,,,0.00,WUHU216HW,2013-06-26 15:01:00,
2013-06-26 11:06:00,80.6,72.3,29.30,ESE,113,0.0,0.0,76,0.00,,,0.00,WUHU216HW,2013-06-26 15:06:00,
2013-06-26 11:11:00,80.9,72.6,29.30,NE,45,0.0,0.0,76,0.00,,,0.00,WUHU216HW,2013-06-26 15:11:00,
2013-06-26 11:16:00,81.3,72.2,29.29,NNE,23,0.0,0.0,74,0.00,,,0.00,WUHU216HW,2013-06-26 15:16:00,
2013-06-26 11:21:00,81.1,71.6,29.29,East,90,0.0,0.0,73,0.00,,,0.00,WUHU216HW,2013-06-26 15:21:00,
2013-06-26 11:26:00,81.3,71.8,29.29,SE,135,0.0,0.0,73,0.00,,,0.00,WUHU216HW,2013-06-26 15:26:00,
2013-06-26 11:31:00,81.5,71.6,29.29,SE,135,0.0,0.0,72,0.00,,,0.00,WUHU216HW,2013-06-26 15:31:00,
2013-06-26 11:36:00,81.1,71.4,29.29,ENE,68,0.0,0.0,72,0.00,,,0.00,WUHU216HW,2013-06-26 15:36:00,
2013-06-26 11:41:00,80.7,70.5,29.29,ENE,68,0.0,0.0,71,0.00,,,0.00,WUHU216HW,2013-06-26 15:41:00,
2013-06-26 11:46:00,80.4,70.1,29.29,NE,45,0.0,0.0,71,0.00,,,0.00,WUHU216HW,2013-06-26 15:46:00,
2013-06-26 11:51:00,80.0,70.2,29.29,NE,45,0.0,0.0,71,0.00,,,0.00,WUHU216HW,2013-06-26 15:51:00,
2013-06-26 11:57:00,79.8,70.0,29.29,NE,45,0.0,0.0,72,0.00,,,0.00,WUHU216HW,2013-06-26 15:57:00,
2013-06-26 12:02:00,79.8,70.4,29.29,NE,45,0.0,0.0,73,0.00,,,0.00,WUHU216HW,2013-06-26 16:02:00,
2013-06-26 12:07:00,79.8,70.0,29.30,NE,45,0.0,0.0,72,0.00,,,0.00,WUHU216HW,2013-06-26 16:07:00,
2013-06-26 12:12:00,79.7,70.2,29.30,NE,45,0.0,0.0,73,0.00,,,0.00,WUHU216HW,2013-06-26 16:12:00,
2013-06-26 12:17:00,79.5,70.0,29.30,NE,45,0.0,0.0,73,0.00,,,0.00,WUHU216HW,2013-06-26 16:17:00,
2013-06-26 12:22:00,79.3,70.3,29.30,NE,45,0.0,0.0,74,0.00,,,0.00,WUHU216HW,2013-06-26 16:22:00,
2013-06-26 12:27:00,79.1,70.1,29.30,NE,45,0.0,0.0,74,0.00,,,0.00,WUHU216HW,2013-06-26 16:27:00,
2013-06-26 12:32:00,78.6,69.9,29.30,NE,45,0.0,0.0,75,0.00,,,0.00,WUHU216HW,2013-06-26 16:32:00,
2013-06-26 12:37:00,78.6,69.9,29.30,NE,45,0.0,0.0,75,0.00,,,0.00,WUHU216HW,2013-06-26 16:37:00,
2013-06-26 12:42:00,78.4,69.8,29.30,NE,45,0.0,0.0,75,0.00,,,0.00,WUHU216HW,2013-06-26 16:42:00,
2013-06-26 12:48:00,78.0,69.8,29.31,NE,45,0.0,0.0,76,0.00,,,0.00,WUHU216HW,2013-06-26 16:48:00,
2013-06-26 12:53:00,77.7,69.5,29.31,NE,45,0.0,0.0,76,0.00,,,0.00,WUHU216HW,2013-06-26 16:53:00,
2013-06-26 12:58:00,77.7,69.5,29.31,NE,45,0.0,0.0,76,0.00,,,0.00,WUHU216HW,2013-06-26 16:58:00,
2013-06-26 13:03:00,77.3,69.5,29.31,NE,45,0.0,0.0,77,0.00,,,0.00,WUHU216HW,2013-06-26 17:03:00,
2013-06-26 13:08:00,77.1,69.3,29.31,NE,45,0.0,0.0,77,0.00,,,0.00,WUHU216HW,2013-06-26 17:08:00,
2013-06-26 13:13:00,76.8,69.0,29.31,NE,45,0.0,0.0,77,0.00,,,0.00,WUHU216HW,2013-06-26 17:13:00,
2013-06-26 13:18:00,76.8,69.4,29.31,NE,45,0.0,0.0,78,0.00,,,0.00,WUHU216HW,2013-06-26 17:18:00,
2013-06-26 13:23:00,76.8,69.4,29.31,NE,45,0.0,0.0,78,0.00,,,0.00,WUHU216HW,2013-06-26 17:23:00,
2013-06-26 13:28:00,76.8,69.4,29.31,NE,45,0.0,0.0,78,0.00,,,0.00,WUHU216HW,2013-06-26 17:28:00,
2013-06-26 13:33:00,76.6,69.2,29.31,NE,45,0.0,0.0,78,0.00,,,0.00,WUHU216HW,2013-06-26 17:33:00,
2013-06-26 13:38:00,76.6,69.4,29.31,NNE,23,0.0,0.0,78,0.00,,,0.00,WUHU216HW,2013-06-26 17:38:00,
2013-06-26 13:43:00,76.8,69.7,29.32,NNE,23,0.0,0.0,79,0.00,,,0.00,WUHU216HW,2013-06-26 17:43:00,
2013-06-26 13:48:00,76.8,69.7,29.31,NNE,23,0.0,0.0,79,0.00,,,0.00,WUHU216HW,2013-06-26 17:48:00,
2013-06-26 13:53:00,77.3,70.1,29.31,NNE,23,0.0,0.0,79,0.00,,,0.00,WUHU216HW,2013-06-26 17:53:00,
2013-06-26 13:58:00,77.5,70.4,29.31,NNE,23,0.0,0.0,79,0.00,,,0.00,WUHU216HW,2013-06-26 17:58:00,
2013-06-26 14:04:00,78.0,71.0,29.31,NNE,23,0.0,0.0,79,0.00,,,0.00,WUHU216HW,2013-06-26 18:04:00,
2013-06-26 14:09:00,78.6,71.1,29.31,NNE,23,0.0,0.0,78,0.00,,,0.00,WUHU216HW,2013-06-26 18:09:00,
2013-06-26 14:14:00,78.6,71.1,29.31,NNE,23,0.0,0.0,78,0.00,,,0.00,WUHU216HW,2013-06-26 18:14:00,
2013-06-26 14:19:00,78.8,71.7,29.31,NNE,23,0.0,0.0,79,0.00,,,0.00,WUHU216HW,2013-06-26 18:19:00,
2013-06-26 14:24:00,78.9,71.5,29.30,NNE,23,0.0,0.0,78,0.00,,,0.00,WUHU216HW,2013-06-26 18:24:00,
2013-06-26 14:29:00,78.9,71.5,29.30,NNE,23,0.0,0.0,78,0.00,,,0.00,WUHU216HW,2013-06-26 18:29:00,
2013-06-26 14:34:00,78.9,71.5,29.30,NNE,23,0.0,0.0,78,0.00,,,0.00,WUHU216HW,2013-06-26 18:34:00,
2013-06-26 14:39:00,78.9,71.5,29.30,NNE,23,0.0,0.0,78,0.00,,,0.00,WUHU216HW,2013-06-26 18:39:00,
2013-06-26 14:44:00,78.9,71.5,29.30,NNE,23,0.0,0.0,78,0.00,,,0.00,WUHU216HW,2013-06-26 18:44:00,
2013-06-26 14:49:00,78.9,71.5,29.31,NNE,23,0.0,0.0,78,0.00,,,0.00,WUHU216HW,2013-06-26 18:49:00,
2013-06-26 14:54:00,79.1,71.5,29.30,NNE,23,0.0,0.0,78,0.00,,,0.00,WUHU216HW,2013-06-26 18:54:00,
2013-06-26 14:59:00,79.1,71.7,29.30,NNE,23,0.0,0.0,78,0.00,,,0.00,WUHU216HW,2013-06-26 18:59:00,
2013-06-26 15:04:00,79.1,71.7,29.30,NNE,23,0.0,0.0,78,0.00,,,0.00,WUHU216HW,2013-06-26 19:04:00,
2013-06-26 15:09:00,79.3,71.8,29.29,NNE,23,0.0,0.0,78,0.00,,,0.00,WUHU216HW,2013-06-26 19:09:00,
2013-06-26 15:14:00,79.3,71.4,29.29,NNE,23,0.0,0.0,77,0.00,,,0.00,WUHU216HW,2013-06-26 19:14:00,
2013-06-26 15:19:00,79.1,71.3,29.29,NNE,23,0.0,0.0,77,0.00,,,0.00,WUHU216HW,2013-06-26 19:19:00,
2013-06-26 15:24:00,79.3,71.8,29.29,NNE,23,0.0,0.0,78,0.00,,,0.00,WUHU216HW,2013-06-26 19:24:00,
2013-06-26 15:29:00,79.3,71.8,29.29,NE,45,0.0,0.0,78,0.00,,,0.00,WUHU216HW,2013-06-26 19:29:00,
2013-06-26 15:34:00,79.5,72.0,29.28,NE,45,0.0,0.0,78,0.00,,,0.00,WUHU216HW,2013-06-26 19:34:00,
2013-06-26 15:39:00,79.5,72.0,29.28,NNE,23,0.0,0.0,78,0.00,,,0.00,WUHU216HW,2013-06-26 19:39:00,
2013-06-26 15:44:00,79.7,72.2,29.28,NE,45,0.0,0.0,78,0.00,,,0.00,WUHU216HW,2013-06-26 19:44:00,
2013-06-26 15:50:00,79.8,72.4,29.28,NE,45,0.0,0.0,78,0.00,,,0.00,WUHU216HW,2013-06-26 19:50:00,
2013-06-26 15:55:00,80.0,72.2,29.28,NE,45,0.0,0.0,77,0.00,,,0.00,WUHU216HW,2013-06-26 19:55:00,
2013-06-26 16:00:00,79.8,72.0,29.28,NE,45,0.0,0.0,77,0.00,,,0.00,WUHU216HW,2013-06-26 20:00:00,
2013-06-26 16:05:00,79.8,72.0,29.29,NE,45,0.0,0.0,77,0.00,,,0.00,WUHU216HW,2013-06-26 20:05:00,
2013-06-26 16:10:00,79.7,71.8,29.29,NE,45,0.0,0.0,77,0.00,,,0.00,WUHU216HW,2013-06-26 20:10:00,
2013-06-26 16:15:00,79.5,71.6,29.28,NE,45,0.0,0.0,77,0.00,,,0.00,WUHU216HW,2013-06-26 20:15:00,
2013-06-26 16:20:00,79.5,71.6,29.29,NE,45,0.0,0.0,77,0.00,,,0.00,WUHU216HW,2013-06-26 20:20:00,
2013-06-26 16:25:00,79.3,71.8,29.28,NE,45,0.0,0.0,78,0.00,,,0.00,WUHU216HW,2013-06-26 20:25:00,
2013-06-26 16:30:00,79.1,71.7,29.28,NE,45,0.0,0.0,78,0.00,,,0.00,WUHU216HW,2013-06-26 20:30:00,
2013-06-26 16:35:00,78.9,71.5,29.28,NE,45,0.0,0.0,78,0.00,,,0.00,WUHU216HW,2013-06-26 20:35:00,
2013-06-26 16:40:00,78.6,71.1,29.28,NE,45,0.0,0.0,78,0.00,,,0.00,WUHU216HW,2013-06-26 20:40:00,
2013-06-26 16:45:00,78.6,71.1,29.28,NE,45,0.0,0.0,78,0.00,,,0.00,WUHU216HW,2013-06-26 20:45:00,
2013-06-26 16:50:00,78.4,70.9,29.28,NE,45,0.0,0.0,78,0.00,,,0.00,WUHU216HW,2013-06-26 20:50:00,
2013-06-26 16:55:00,78.6,71.1,29.28,NNE,23,0.0,0.0,78,0.00,,,0.00,WUHU216HW,2013-06-26 20:55:00,
2013-06-26 17:00:00,78.6,71.1,29.28,NNE,23,0.0,0.0,78,0.00,,,0.00,WUHU216HW,2013-06-26 21:00:00,
2013-06-26 17:05:00,78.6,71.5,29.27,NNE,23,0.0,0.0,79,0.00,,,0.00,WUHU216HW,2013-06-26 21:05:00,
2013-06-26 17:10:00,78.6,71.5,29.27,NNE,23,0.0,0.0,79,0.00,,,0.00,WUHU216HW,2013-06-26 21:10:00,
2013-06-26 17:15:00,78.9,71.9,29.27,NNE,23,0.0,0.0,79,0.00,,,0.00,WUHU216HW,2013-06-26 21:15:00,
2013-06-26 17:20:00,79.3,72.2,29.27,NNE,23,0.0,0.0,79,0.00,,,0.00,WUHU216HW,2013-06-26 21:20:00,
2013-06-26 17:25:00,79.3,71.8,29.28,NNE,23,0.0,0.0,78,0.00,,,0.00,WUHU216HW,2013-06-26 21:25:00,
2013-06-26 17:30:00,79.3,71.8,29.28,NNE,23,0.0,0.0,78,0.00,,,0.00,WUHU216HW,2013-06-26 21:30:00,
2013-06-26 17:35:00,79.3,71.8,29.28,NNE,23,0.0,0.0,78,0.00,,,0.00,WUHU216HW,2013-06-26 21:35:00,
2013-06-26 17:40:00,78.9,71.7,29.28,NNE,23,0.0,0.0,78,0.00,,,0.00,WUHU216HW,2013-06-26 21:40:00,
2013-06-26 17:45:00,78.9,71.5,29.28,NNE,23,0.0,0.0,78,0.00,,,0.00,WUHU216HW,2013-06-26 21:45:00,
2013-06-26 17:50:00,78.6,70.7,29.28,NNE,23,0.0,0.0,77,0.00,,,0.00,WUHU216HW,2013-06-26 21:50:00,
2013-06-26 17:55:00,78.4,70.7,29.28,NNE,23,0.0,0.0,77,0.00,,,0.00,WUHU216HW,2013-06-26 21:55:00,
2013-06-26 18:00:00,78.0,70.6,29.28,NNE,23,0.0,0.0,78,0.00,,,0.00,WUHU216HW,2013-06-26 22:00:00,
2013-06-26 18:05:00,78.0,70.6,29.28,NNE,23,0.0,0.0,78,0.00,,,0.00,WUHU216HW,2013-06-26 22:05:00,
2013-06-26 18:10:00,78.0,70.6,29.28,NNE,23,0.0,0.0,78,0.00,,,0.00,WUHU216HW,2013-06-26 22:10:00,
2013-06-26 18:16:00,77.9,70.4,29.28,NE,45,0.0,0.0,78,0.00,,,0.00,WUHU216HW,2013-06-26 22:16:00,
2013-06-26 18:21:00,77.9,70.4,29.28,NNE,23,0.0,0.0,78,0.00,,,0.00,WUHU216HW,2013-06-26 22:21:00,
2013-06-26 18:26:00,77.9,70.4,29.28,NNE,23,0.0,0.0,78,0.00,,,0.00,WUHU216HW,2013-06-26 22:26:00,
2013-06-26 18:31:00,77.7,70.2,29.29,NNE,23,0.0,0.0,78,0.00,,,0.00,WUHU216HW,2013-06-26 22:31:00,
2013-06-26 18:36:00,77.7,70.2,29.29,NNE,23,0.0,0.0,78,0.00,,,0.00,WUHU216HW,2013-06-26 22:36:00,
2013-06-26 18:41:00,77.7,70.6,29.29,NNE,23,0.0,0.0,79,0.00,,,0.00,WUHU216HW,2013-06-26 22:41:00,
2013-06-26 18:46:00,77.7,70.6,29.29,NNE,23,0.0,0.0,79,0.00,,,0.00,WUHU216HW,2013-06-26 22:46:00,
2013-06-26 18:51:00,77.7,70.6,29.29,NNE,23,0.0,0.0,79,0.00,,,0.00,WUHU216HW,2013-06-26 22:51:00,
2013-06-26 18:56:00,77.7,70.6,29.30,NE,45,0.0,0.0,79,0.00,,,0.00,WUHU216HW,2013-06-26 22:56:00,
2013-06-26 19:01:00,77.5,70.4,29.30,North,0,0.0,0.0,79,0.00,,,0.00,WUHU216HW,2013-06-26 23:01:00,
2013-06-26 19:06:00,77.5,70.4,29.30,North,0,0.0,0.0,79,0.00,,,0.00,WUHU216HW,2013-06-26 23:06:00,
2013-06-26 19:11:00,77.1,70.1,29.29,NNE,23,0.0,0.0,79,0.00,,,0.00,WUHU216HW,2013-06-26 23:11:00,
2013-06-26 19:16:00,76.8,69.7,29.29,NNE,23,0.0,0.0,79,0.00,,,0.00,WUHU216HW,2013-06-26 23:16:00,
2013-06-26 19:21:00,76.8,69.7,29.29,NNE,23,0.0,0.0,79,0.00,,,0.00,WUHU216HW,2013-06-26 23:21:00,
2013-06-26 19:26:00,76.6,69.6,29.29,NNE,23,0.0,0.0,79,0.00,,,0.00,WUHU216HW,2013-06-26 23:26:00,
2013-06-26 19:31:00,76.6,69.6,29.29,NNE,23,0.0,0.0,79,0.00,,,0.00,WUHU216HW,2013-06-26 23:31:00,
2013-06-26 19:36:00,76.4,69.4,29.29,NNE,23,0.0,0.0,79,0.00,,,0.00,WUHU216HW,2013-06-26 23:36:00,
2013-06-26 19:41:00,76.2,69.2,29.29,NNE,23,0.0,0.0,79,0.00,,,0.00,WUHU216HW,2013-06-26 23:41:00,
2013-06-26 19:46:00,76.1,69.5,29.30,NNE,23,0.0,0.0,80,0.00,,,0.00,WUHU216HW,2013-06-26 23:46:00,
2013-06-26 19:51:00,75.9,69.3,29.29,NNE,23,0.0,0.0,80,0.00,,,0.00,WUHU216HW,2013-06-26 23:51:00,
2013-06-26 19:56:00,75.7,69.2,29.29,NNE,23,0.0,0.0,80,0.00,,,0.00,WUHU216HW,2013-06-26 23:56:00,
2013-06-26 20:01:00,75.5,69.0,29.29,NNE,23,0.0,0.0,80,0.00,,,0.00,WUHU216HW,2013-06-27 00:01:00,
2013-06-26 20:06:00,75.0,68.8,29.29,NNE,23,0.0,0.0,81,0.00,,,0.00,WUHU216HW,2013-06-27 00:06:00,
2013-06-26 20:11:00,75.0,68.8,29.29,NNE,23,0.0,0.0,81,0.00,,,0.00,WUHU216HW,2013-06-27 00:11:00,
2013-06-26 20:16:00,74.8,68.7,29.28,NNE,23,0.0,0.0,81,0.00,,,0.00,WUHU216HW,2013-06-27 00:16:00,
2013-06-26 20:22:00,74.4,68.3,29.29,NNE,23,0.0,0.0,81,0.00,,,0.00,WUHU216HW,2013-06-27 00:22:00,
2013-06-26 20:27:00,74.3,68.1,29.28,NNE,23,0.0,0.0,81,0.00,,,0.00,WUHU216HW,2013-06-27 00:27:00,
2013-06-26 20:32:00,74.1,67.9,29.28,NNE,23,0.0,0.0,81,0.00,,,0.00,WUHU216HW,2013-06-27 00:32:00,
2013-06-26 20:37:00,73.5,67.4,29.28,NNE,23,0.0,0.0,81,0.00,,,0.00,WUHU216HW,2013-06-27 00:37:00,
2013-06-26 20:42:00,73.4,67.6,29.28,NNE,23,0.0,0.0,82,0.00,,,0.00,WUHU216HW,2013-06-27 00:42:00,
2013-06-26 20:47:00,73.2,67.4,29.28,NNE,23,0.0,0.0,82,0.00,,,0.00,WUHU216HW,2013-06-27 00:47:00,
2013-06-26 20:52:00,73.0,67.2,29.28,NNE,23,0.0,0.0,82,0.00,,,0.00,WUHU216HW,2013-06-27 00:52:00,
2013-06-26 20:57:00,72.6,67.2,29.28,NNE,23,0.0,0.0,83,0.00,,,0.00,WUHU216HW,2013-06-27 00:57:00,
2013-06-26 21:02:00,72.5,67.0,29.28,NNE,23,0.0,0.0,83,0.00,,,0.00,WUHU216HW,2013-06-27 01:02:00,
2013-06-26 21:07:00,72.3,66.8,29.28,NNE,23,0.0,0.0,83,0.00,,,0.00,WUHU216HW,2013-06-27 01:07:00,
2013-06-26 21:12:00,72.1,66.6,29.28,NNE,23,0.0,0.0,83,0.00,,,0.00,WUHU216HW,2013-06-27 01:12:00,
2013-06-26 21:17:00,71.9,66.8,29.29,NNE,23,0.0,0.0,84,0.00,,,0.00,WUHU216HW,2013-06-27 01:17:00,
2013-06-26 21:22:00,71.7,66.3,29.29,NNE,23,0.0,0.0,83,0.00,,,0.00,WUHU216HW,2013-06-27 01:22:00,
2013-06-26 21:27:00,71.4,66.3,29.30,NNE,23,0.0,0.0,84,0.00,,,0.00,WUHU216HW,2013-06-27 01:27:00,
2013-06-26 21:32:00,71.4,66.3,29.30,NNE,23,0.0,0.0,84,0.00,,,0.00,WUHU216HW,2013-06-27 01:32:00,
2013-06-26 21:37:00,71.2,66.4,29.30,NNE,23,0.0,0.0,85,0.00,,,0.00,WUHU216HW,2013-06-27 01:37:00,
2013-06-26 21:42:00,71.2,66.4,29.30,NNE,23,0.0,0.0,85,0.00,,,0.00,WUHU216HW,2013-06-27 01:42:00,
2013-06-26 21:47:00,70.8,66.1,29.30,NNE,23,0.0,0.0,85,0.00,,,0.00,WUHU216HW,2013-06-27 01:47:00,
2013-06-26 21:52:00,70.8,66.1,29.31,NNE,23,0.0,0.0,85,0.00,,,0.00,WUHU216HW,2013-06-27 01:52:00,
2013-06-26 21:57:00,70.5,65.7,29.31,NNE,23,0.0,0.0,85,0.00,,,0.00,WUHU216HW,2013-06-27 01:57:00,
2013-06-26 22:03:00,70.5,66.0,29.31,NNE,23,0.0,0.0,86,0.00,,,0.00,WUHU216HW,2013-06-27 02:03:00,
2013-06-26 22:08:00,70.3,65.9,29.31,NNE,23,0.0,0.0,86,0.00,,,0.00,WUHU216HW,2013-06-27 02:08:00,
2013-06-26 22:13:00,70.3,65.9,29.31,NNE,23,0.0,0.0,86,0.00,,,0.00,WUHU216HW,2013-06-27 02:13:00,
2013-06-26 22:18:00,70.1,65.7,29.31,NNE,23,0.0,0.0,86,0.00,,,0.00,WUHU216HW,2013-06-27 02:18:00,
2013-06-26 22:23:00,69.9,65.5,29.31,NNE,23,0.0,0.0,86,0.00,,,0.00,WUHU216HW,2013-06-27 02:23:00,
2013-06-26 22:28:00,69.9,65.5,29.31,NNE,23,0.0,0.0,86,0.00,,,0.00,WUHU216HW,2013-06-27 02:28:00,
2013-06-26 22:33:00,69.8,65.3,29.31,NNE,23,0.0,0.0,86,0.00,,,0.00,WUHU216HW,2013-06-27 02:33:00,
2013-06-26 22:38:00,69.6,65.5,29.32,NNE,23,0.0,0.0,87,0.00,,,0.00,WUHU216HW,2013-06-27 02:38:00,
2013-06-26 22:43:00,69.6,65.5,29.31,NNE,23,0.0,0.0,87,0.00,,,0.00,WUHU216HW,2013-06-27 02:43:00,
2013-06-26 22:48:00,69.6,65.5,29.31,NNE,23,0.0,0.0,87,0.00,,,0.00,WUHU216HW,2013-06-27 02:48:00,
2013-06-26 22:53:00,69.6,65.5,29.31,NNE,23,0.0,0.0,87,0.00,,,0.00,WUHU216HW,2013-06-27 02:53:00,
2013-06-26 22:58:00,69.6,65.8,29.31,NNE,23,0.0,0.0,88,0.00,,,0.00,WUHU216HW,2013-06-27 02:58:00,
2013-06-26 23:03:00,69.4,65.6,29.31,NNE,23,0.0,0.0,88,0.00,,,0.00,WUHU216HW,2013-06-27 03:03:00,
2013-06-26 23:08:00,69.4,65.6,29.31,NNE,23,0.0,0.0,88,0.00,,,0.00,WUHU216HW,2013-06-27 03:08:00,
2013-06-26 23:13:00,69.4,65.6,29.31,NNE,23,0.0,0.0,88,0.00,,,0.00,WUHU216HW,2013-06-27 03:13:00,
2013-06-26 23:18:00,69.2,65.5,29.31,NNE,23,0.0,0.0,88,0.00,,,0.00,WUHU216HW,2013-06-27 03:18:00,
2013-06-26 23:23:00,69.0,65.3,29.31,NNE,23,0.0,0.0,88,0.00,,,0.00,WUHU216HW,2013-06-27 03:23:00,
2013-06-26 23:28:00,69.0,65.3,29.31,NNE,23,0.0,0.0,88,0.00,,,0.00,WUHU216HW,2013-06-27 03:28:00,
2013-06-26 23:33:00,69.0,65.3,29.31,NNE,23,0.0,0.0,88,0.00,,,0.00,WUHU216HW,2013-06-27 03:33:00,
2013-06-26 23:38:00,68.9,65.4,29.31,NNE,23,0.0,0.0,89,0.00,,,0.00,WUHU216HW,2013-06-27 03:38:00,
2013-06-26 23:43:00,68.9,65.4,29.31,NNE,23,0.0,0.0,89,0.00,,,0.00,WUHU216HW,2013-06-27 03:43:00,
2013-06-26 23:48:00,68.7,65.3,29.31,NNE,23,0.0,0.0,89,0.00,,,0.00,WUHU216HW,2013-06-27 03:48:00,
2013-06-26 23:53:00,68.7,65.3,29.31,NNE,23,0.0,0.0,89,0.00,,,0.00,WUHU216HW,2013-06-27 03:53:00,
2013-06-26 23:58:00,68.7,65.3,29.30,NNE,23,0.0,0.0,89,0.00,,,0.00,WUHU216HW,2013-06-27 03:58:00,